Terminal Aerodrome Forecast
Issued by NWS Billings, MT

Home | Current Version | Previous Version | Text Only | Print | Product List | Glossary On
Versions: 1 2 3 4 5 6 7 8 9 10 11 12 13 14 15 16 17 18 19 20 21 22 23 24 25 26
000
FTUS45 KBYZ 290803 AAA
TAFSHR
TAF AMD
KSHR 290803Z 2908/3006 31024G33KT P6SM VCSH FEW050 BKN090
     FM291400 32011G18KT P6SM FEW020
     FM292000 VRB06KT P6SM FEW020 SCT100
     FM300200 11011KT P6SM SCT100=

USA.gov is the U.S. government's official web portal to all federal, state and local government web resources and services.